sensor_id;sensor_type;location;lat;lon;timestamp;P1;durP1;ratioP1;P2;durP2;ratioP2
68196;SDS011;55019;49.382;11.358;2023-12-29T00:01:59;1.70;;;1.27;;
68196;SDS011;55019;49.382;11.358;2023-12-29T00:04:26;2.33;;;1.30;;
68196;SDS011;55019;49.382;11.358;2023-12-29T00:06:51;3.70;;;1.00;;
68196;SDS011;55019;49.382;11.358;2023-12-29T00:09:17;2.67;;;1.20;;
68196;SDS011;55019;49.382;11.358;2023-12-29T00:11:47;2.25;;;1.25;;
68196;SDS011;55019;49.382;11.358;2023-12-29T00:14:13;2.15;;;1.15;;
68196;SDS011;55019;49.382;11.358;2023-12-29T00:16:39;1.40;;;1.10;;
68196;SDS011;55019;49.382;11.358;2023-12-29T00:19:05;1.63;;;1.02;;
68196;SDS011;55019;49.382;11.358;2023-12-29T00:21:31;2.55;;;1.15;;
68196;SDS011;55019;49.382;11.358;2023-12-29T00:23:57;1.48;;;1.00;;
68196;SDS011;55019;49.382;11.358;2023-12-29T00:26:23;1.42;;;0.77;;
68196;SDS011;55019;49.382;11.358;2023-12-29T00:28:55;1.33;;;0.80;;
68196;SDS011;55019;49.382;11.358;2023-12-29T00:31:21;1.52;;;1.02;;
68196;SDS011;55019;49.382;11.358;2023-12-29T00:33:46;1.23;;;0.82;;
68196;SDS011;55019;49.382;11.358;2023-12-29T00:36:16;1.48;;;0.90;;
68196;SDS011;55019;49.382;11.358;2023-12-29T00:38:42;1.25;;;0.82;;
68196;SDS011;55019;49.382;11.358;2023-12-29T00:41:08;1.50;;;0.93;;
68196;SDS011;55019;49.382;11.358;2023-12-29T00:43:34;1.33;;;0.85;;
68196;SDS011;55019;49.382;11.358;2023-12-29T00:46:04;1.52;;;0.98;;
68196;SDS011;55019;49.382;11.358;2023-12-29T00:48:33;1.85;;;0.73;;
68196;SDS011;55019;49.382;11.358;2023-12-29T00:51:00;2.33;;;0.95;;
68196;SDS011;55019;49.382;11.358;2023-12-29T00:53:29;1.00;;;0.70;;
68196;SDS011;55019;49.382;11.358;2023-12-29T00:55:57;2.15;;;0.90;;
68196;SDS011;55019;49.382;11.358;2023-12-29T00:58:23;1.10;;;0.70;;
68196;SDS011;55019;49.382;11.358;2023-12-29T01:00:49;1.60;;;0.77;;
68196;SDS011;55019;49.382;11.358;2023-12-29T01:03:15;1.20;;;0.80;;
68196;SDS011;55019;49.382;11.358;2023-12-29T01:05:41;1.42;;;0.95;;
68196;SDS011;55019;49.382;11.358;2023-12-29T01:08:07;4.20;;;0.95;;
68196;SDS011;55019;49.382;11.358;2023-12-29T01:10:33;1.08;;;0.68;;
68196;SDS011;55019;49.382;11.358;2023-12-29T01:12:59;1.55;;;0.85;;
68196;SDS011;55019;49.382;11.358;2023-12-29T01:15:24;1.40;;;0.90;;
68196;SDS011;55019;49.382;11.358;2023-12-29T01:17:51;1.42;;;0.80;;
68196;SDS011;55019;49.382;11.358;2023-12-29T01:20:17;1.55;;;1.00;;
68196;SDS011;55019;49.382;11.358;2023-12-29T01:22:43;1.27;;;0.60;;
68196;SDS011;55019;49.382;11.358;2023-12-29T01:25:09;1.08;;;0.85;;
68196;SDS011;55019;49.382;11.358;2023-12-29T01:27:34;1.00;;;0.50;;
68196;SDS011;55019;49.382;11.358;2023-12-29T01:30:00;1.27;;;0.73;;
68196;SDS011;55019;49.382;11.358;2023-12-29T01:32:26;1.17;;;0.88;;
68196;SDS011;55019;49.382;11.358;2023-12-29T01:34:52;0.95;;;0.80;;
68196;SDS011;55019;49.382;11.358;2023-12-29T01:37:18;1.65;;;0.80;;
68196;SDS011;55019;49.382;11.358;2023-12-29T01:39:44;0.75;;;0.70;;
68196;SDS011;55019;49.382;11.358;2023-12-29T01:42:10;2.30;;;0.75;;
68196;SDS011;55019;49.382;11.358;2023-12-29T01:44:36;1.25;;;0.90;;
68196;SDS011;55019;49.382;11.358;2023-12-29T01:47:05;1.20;;;0.80;;
68196;SDS011;55019;49.382;11.358;2023-12-29T01:49:38;1.00;;;0.50;;
68196;SDS011;55019;49.382;11.358;2023-12-29T01:52:05;1.23;;;0.73;;
68196;SDS011;55019;49.382;11.358;2023-12-29T01:54:34;2.15;;;0.80;;
68196;SDS011;55019;49.382;11.358;2023-12-29T01:57:03;1.48;;;0.50;;
68196;SDS011;55019;49.382;11.358;2023-12-29T01:59:30;1.23;;;0.63;;
68196;SDS011;55019;49.382;11.358;2023-12-29T02:01:57;1.58;;;0.80;;
68196;SDS011;55019;49.382;11.358;2023-12-29T02:04:23;1.90;;;0.80;;
68196;SDS011;55019;49.382;11.358;2023-12-29T02:06:51;1.83;;;0.85;;
68196;SDS011;55019;49.382;11.358;2023-12-29T02:09:17;1.70;;;0.95;;
68196;SDS011;55019;49.382;11.358;2023-12-29T02:11:44;1.63;;;0.82;;
68196;SDS011;55019;49.382;11.358;2023-12-29T02:14:17;2.00;;;1.05;;
68196;SDS011;55019;49.382;11.358;2023-12-29T02:16:46;3.33;;;1.40;;
68196;SDS011;55019;49.382;11.358;2023-12-29T02:22:02;1.55;;;1.27;;
68196;SDS011;55019;49.382;11.358;2023-12-29T02:24:27;3.47;;;1.33;;
68196;SDS011;55019;49.382;11.358;2023-12-29T02:26:58;2.70;;;1.20;;
68196;SDS011;55019;49.382;11.358;2023-12-29T02:29:48;1.85;;;1.23;;
68196;SDS011;55019;49.382;11.358;2023-12-29T02:32:34;2.03;;;1.30;;
68196;SDS011;55019;49.382;11.358;2023-12-29T02:35:04;3.20;;;1.52;;
68196;SDS011;55019;49.382;11.358;2023-12-29T02:37:33;1.67;;;1.10;;
68196;SDS011;55019;49.382;11.358;2023-12-29T02:40:01;2.58;;;1.67;;
68196;SDS011;55019;49.382;11.358;2023-12-29T02:42:28;1.95;;;1.30;;
68196;SDS011;55019;49.382;11.358;2023-12-29T02:44:54;2.35;;;1.50;;
68196;SDS011;55019;49.382;11.358;2023-12-29T02:47:20;4.40;;;1.58;;
68196;SDS011;55019;49.382;11.358;2023-12-29T02:49:47;1.63;;;1.45;;
68196;SDS011;55019;49.382;11.358;2023-12-29T02:52:14;3.40;;;1.42;;
68196;SDS011;55019;49.382;11.358;2023-12-29T02:54:44;2.33;;;1.33;;
68196;SDS011;55019;49.382;11.358;2023-12-29T02:57:10;2.55;;;1.35;;
68196;SDS011;55019;49.382;11.358;2023-12-29T02:59:53;2.17;;;1.52;;
68196;SDS011;55019;49.382;11.358;2023-12-29T03:02:19;2.72;;;1.50;;
68196;SDS011;55019;49.382;11.358;2023-12-29T03:04:47;4.80;;;1.80;;
68196;SDS011;55019;49.382;11.358;2023-12-29T03:07:13;2.65;;;1.42;;
68196;SDS011;55019;49.382;11.358;2023-12-29T03:09:39;3.38;;;1.63;;
68196;SDS011;55019;49.382;11.358;2023-12-29T03:12:05;3.13;;;1.75;;
68196;SDS011;55019;49.382;11.358;2023-12-29T03:16:58;2.25;;;1.52;;
68196;SDS011;55019;49.382;11.358;2023-12-29T03:19:24;2.10;;;1.42;;
68196;SDS011;55019;49.382;11.358;2023-12-29T03:21:50;2.47;;;1.60;;
68196;SDS011;55019;49.382;11.358;2023-12-29T03:24:16;2.70;;;1.52;;
68196;SDS011;55019;49.382;11.358;2023-12-29T03:26:42;1.88;;;1.65;;
68196;SDS011;55019;49.382;11.358;2023-12-29T03:29:08;3.38;;;1.60;;
68196;SDS011;55019;49.382;11.358;2023-12-29T03:31:35;1.95;;;1.27;;
68196;SDS011;55019;49.382;11.358;2023-12-29T03:34:01;2.75;;;1.83;;
68196;SDS011;55019;49.382;11.358;2023-12-29T03:36:26;2.03;;;1.42;;
68196;SDS011;55019;49.382;11.358;2023-12-29T03:38:52;2.00;;;1.30;;
68196;SDS011;55019;49.382;11.358;2023-12-29T03:41:18;3.20;;;1.73;;
68196;SDS011;55019;49.382;11.358;2023-12-29T03:43:44;2.08;;;1.45;;
68196;SDS011;55019;49.382;11.358;2023-12-29T03:46:22;2.17;;;1.55;;
68196;SDS011;55019;49.382;11.358;2023-12-29T03:48:49;2.10;;;1.13;;
68196;SDS011;55019;49.382;11.358;2023-12-29T03:51:15;2.08;;;1.30;;
68196;SDS011;55019;49.382;11.358;2023-12-29T03:53:42;1.63;;;1.17;;
68196;SDS011;55019;49.382;11.358;2023-12-29T03:56:12;2.65;;;1.50;;
68196;SDS011;55019;49.382;11.358;2023-12-29T03:58:40;2.13;;;1.20;;
68196;SDS011;55019;49.382;11.358;2023-12-29T04:01:09;3.17;;;1.48;;
68196;SDS011;55019;49.382;11.358;2023-12-29T04:03:42;2.60;;;1.20;;
68196;SDS011;55019;49.382;11.358;2023-12-29T04:06:09;1.60;;;1.30;;
68196;SDS011;55019;49.382;11.358;2023-12-29T04:08:35;2.08;;;1.30;;
68196;SDS011;55019;49.382;11.358;2023-12-29T04:11:01;3.05;;;1.27;;
68196;SDS011;55019;49.382;11.358;2023-12-29T04:13:28;2.15;;;1.25;;
68196;SDS011;55019;49.382;11.358;2023-12-29T04:16:01;3.67;;;1.50;;
68196;SDS011;55019;49.382;11.358;2023-12-29T04:18:28;2.55;;;1.50;;
68196;SDS011;55019;49.382;11.358;2023-12-29T04:20:54;1.70;;;1.30;;
68196;SDS011;55019;49.382;11.358;2023-12-29T04:23:20;2.35;;;1.20;;
68196;SDS011;55019;49.382;11.358;2023-12-29T04:25:47;4.13;;;1.48;;
68196;SDS011;55019;49.382;11.358;2023-12-29T04:28:13;2.05;;;1.20;;
68196;SDS011;55019;49.382;11.358;2023-12-29T04:30:39;2.20;;;1.30;;
68196;SDS011;55019;49.382;11.358;2023-12-29T04:33:06;2.08;;;1.63;;
68196;SDS011;55019;49.382;11.358;2023-12-29T04:35:32;1.95;;;1.38;;
68196;SDS011;55019;49.382;11.358;2023-12-29T04:37:57;2.47;;;1.63;;
68196;SDS011;55019;49.382;11.358;2023-12-29T04:40:23;2.22;;;1.27;;
68196;SDS011;55019;49.382;11.358;2023-12-29T04:42:49;3.53;;;1.60;;
68196;SDS011;55019;49.382;11.358;2023-12-29T04:45:15;3.28;;;1.70;;
68196;SDS011;55019;49.382;11.358;2023-12-29T04:47:41;2.55;;;1.63;;
68196;SDS011;55019;49.382;11.358;2023-12-29T04:50:06;3.95;;;1.58;;
68196;SDS011;55019;49.382;11.358;2023-12-29T04:52:33;3.40;;;1.80;;
68196;SDS011;55019;49.382;11.358;2023-12-29T04:55:02;3.00;;;1.92;;
68196;SDS011;55019;49.382;11.358;2023-12-29T04:57:29;2.85;;;1.48;;
68196;SDS011;55019;49.382;11.358;2023-12-29T04:59:55;2.20;;;1.30;;
68196;SDS011;55019;49.382;11.358;2023-12-29T05:02:21;3.97;;;1.73;;
68196;SDS011;55019;49.382;11.358;2023-12-29T05:04:48;2.63;;;1.45;;
68196;SDS011;55019;49.382;11.358;2023-12-29T05:07:14;2.13;;;1.17;;
68196;SDS011;55019;49.382;11.358;2023-12-29T05:09:40;2.97;;;1.60;;
68196;SDS011;55019;49.382;11.358;2023-12-29T05:12:06;2.25;;;1.52;;
68196;SDS011;55019;49.382;11.358;2023-12-29T05:14:32;2.47;;;1.67;;
68196;SDS011;55019;49.382;11.358;2023-12-29T05:16:58;2.33;;;1.55;;
68196;SDS011;55019;49.382;11.358;2023-12-29T05:19:24;2.55;;;1.58;;
68196;SDS011;55019;49.382;11.358;2023-12-29T05:24:25;3.65;;;1.75;;
68196;SDS011;55019;49.382;11.358;2023-12-29T05:26:55;2.08;;;1.45;;
68196;SDS011;55019;49.382;11.358;2023-12-29T05:29:21;2.38;;;1.58;;
68196;SDS011;55019;49.382;11.358;2023-12-29T05:31:48;4.03;;;1.65;;
68196;SDS011;55019;49.382;11.358;2023-12-29T05:34:15;2.05;;;1.52;;
68196;SDS011;55019;49.382;11.358;2023-12-29T05:36:41;2.75;;;1.70;;
68196;SDS011;55019;49.382;11.358;2023-12-29T05:39:07;2.63;;;1.48;;
68196;SDS011;55019;49.382;11.358;2023-12-29T05:41:33;3.15;;;1.75;;
68196;SDS011;55019;49.382;11.358;2023-12-29T05:44:02;2.72;;;1.90;;
68196;SDS011;55019;49.382;11.358;2023-12-29T05:46:29;2.70;;;1.77;;
68196;SDS011;55019;49.382;11.358;2023-12-29T05:48:55;2.38;;;1.67;;
68196;SDS011;55019;49.382;11.358;2023-12-29T05:51:21;3.30;;;1.52;;
68196;SDS011;55019;49.382;11.358;2023-12-29T05:53:47;4.32;;;1.80;;
68196;SDS011;55019;49.382;11.358;2023-12-29T05:56:14;2.03;;;1.63;;
68196;SDS011;55019;49.382;11.358;2023-12-29T05:58:41;3.20;;;1.42;;
68196;SDS011;55019;49.382;11.358;2023-12-29T06:01:08;3.17;;;1.98;;
68196;SDS011;55019;49.382;11.358;2023-12-29T06:03:34;3.75;;;1.55;;
68196;SDS011;55019;49.382;11.358;2023-12-29T06:06:01;2.53;;;1.42;;
68196;SDS011;55019;49.382;11.358;2023-12-29T06:08:28;3.60;;;1.42;;
68196;SDS011;55019;49.382;11.358;2023-12-29T06:10:54;2.47;;;1.52;;
68196;SDS011;55019;49.382;11.358;2023-12-29T06:13:20;2.35;;;1.50;;
68196;SDS011;55019;49.382;11.358;2023-12-29T06:15:46;2.22;;;1.40;;
68196;SDS011;55019;49.382;11.358;2023-12-29T06:18:13;2.15;;;1.52;;
68196;SDS011;55019;49.382;11.358;2023-12-29T06:20:39;2.65;;;1.83;;
68196;SDS011;55019;49.382;11.358;2023-12-29T06:23:05;2.45;;;1.65;;
68196;SDS011;55019;49.382;11.358;2023-12-29T06:25:33;4.07;;;1.58;;
68196;SDS011;55019;49.382;11.358;2023-12-29T06:28:00;2.35;;;1.55;;
68196;SDS011;55019;49.382;11.358;2023-12-29T06:30:29;3.65;;;2.00;;
68196;SDS011;55019;49.382;11.358;2023-12-29T06:32:55;3.38;;;1.48;;
68196;SDS011;55019;49.382;11.358;2023-12-29T06:35:21;3.67;;;1.63;;
68196;SDS011;55019;49.382;11.358;2023-12-29T06:37:47;3.10;;;1.52;;
68196;SDS011;55019;49.382;11.358;2023-12-29T06:40:12;2.95;;;1.45;;
68196;SDS011;55019;49.382;11.358;2023-12-29T06:42:38;3.28;;;1.90;;
68196;SDS011;55019;49.382;11.358;2023-12-29T06:45:04;2.97;;;1.90;;
68196;SDS011;55019;49.382;11.358;2023-12-29T06:47:33;3.08;;;1.45;;
68196;SDS011;55019;49.382;11.358;2023-12-29T06:49:59;2.75;;;1.48;;
68196;SDS011;55019;49.382;11.358;2023-12-29T06:52:25;2.78;;;1.80;;
68196;SDS011;55019;49.382;11.358;2023-12-29T06:54:52;2.63;;;1.52;;
68196;SDS011;55019;49.382;11.358;2023-12-29T06:57:17;2.10;;;1.27;;
68196;SDS011;55019;49.382;11.358;2023-12-29T06:59:43;2.42;;;1.77;;
68196;SDS011;55019;49.382;11.358;2023-12-29T07:02:09;2.35;;;1.60;;
68196;SDS011;55019;49.382;11.358;2023-12-29T07:04:35;3.60;;;1.58;;
68196;SDS011;55019;49.382;11.358;2023-12-29T07:07:01;3.22;;;1.88;;
68196;SDS011;55019;49.382;11.358;2023-12-29T07:09:27;2.90;;;1.42;;
68196;SDS011;55019;49.382;11.358;2023-12-29T07:11:53;4.18;;;1.80;;
68196;SDS011;55019;49.382;11.358;2023-12-29T07:14:19;2.88;;;1.58;;
68196;SDS011;55019;49.382;11.358;2023-12-29T07:16:45;2.10;;;1.38;;
68196;SDS011;55019;49.382;11.358;2023-12-29T07:19:10;2.78;;;1.45;;
68196;SDS011;55019;49.382;11.358;2023-12-29T07:21:36;6.90;;;1.13;;
68196;SDS011;55019;49.382;11.358;2023-12-29T07:24:05;2.20;;;1.33;;
68196;SDS011;55019;49.382;11.358;2023-12-29T07:26:34;1.83;;;1.00;;
68196;SDS011;55019;49.382;11.358;2023-12-29T07:29:00;3.50;;;1.40;;
68196;SDS011;55019;49.382;11.358;2023-12-29T07:31:26;2.38;;;1.60;;
68196;SDS011;55019;49.382;11.358;2023-12-29T07:33:52;1.25;;;0.98;;
68196;SDS011;55019;49.382;11.358;2023-12-29T07:36:17;2.53;;;1.23;;
68196;SDS011;55019;49.382;11.358;2023-12-29T07:38:43;1.75;;;1.30;;
68196;SDS011;55019;49.382;11.358;2023-12-29T07:42:02;1.88;;;1.30;;
68196;SDS011;55019;49.382;11.358;2023-12-29T07:44:19;1.92;;;1.65;;
68196;SDS011;55019;49.382;11.358;2023-12-29T07:46:45;2.42;;;1.35;;
68196;SDS011;55019;49.382;11.358;2023-12-29T07:49:11;2.38;;;1.30;;
68196;SDS011;55019;49.382;11.358;2023-12-29T07:51:40;2.30;;;1.27;;
68196;SDS011;55019;49.382;11.358;2023-12-29T07:56:45;1.23;;;1.00;;
68196;SDS011;55019;49.382;11.358;2023-12-29T07:59:11;1.67;;;1.25;;
68196;SDS011;55019;49.382;11.358;2023-12-29T08:01:37;2.05;;;1.05;;
68196;SDS011;55019;49.382;11.358;2023-12-29T08:04:03;2.30;;;1.48;;
68196;SDS011;55019;49.382;11.358;2023-12-29T08:06:30;1.77;;;1.02;;
68196;SDS011;55019;49.382;11.358;2023-12-29T08:08:56;2.90;;;1.50;;
68196;SDS011;55019;49.382;11.358;2023-12-29T08:11:21;2.00;;;1.25;;
68196;SDS011;55019;49.382;11.358;2023-12-29T08:13:48;2.72;;;1.52;;
68196;SDS011;55019;49.382;11.358;2023-12-29T08:16:16;1.85;;;1.10;;
68196;SDS011;55019;49.382;11.358;2023-12-29T08:18:43;2.63;;;1.05;;
68196;SDS011;55019;49.382;11.358;2023-12-29T08:21:15;2.35;;;1.30;;
68196;SDS011;55019;49.382;11.358;2023-12-29T08:23:41;2.50;;;1.30;;
68196;SDS011;55019;49.382;11.358;2023-12-29T08:26:08;2.72;;;1.15;;
68196;SDS011;55019;49.382;11.358;2023-12-29T08:28:34;1.98;;;1.00;;
68196;SDS011;55019;49.382;11.358;2023-12-29T08:31:00;2.45;;;1.30;;
68196;SDS011;55019;49.382;11.358;2023-12-29T08:33:25;2.47;;;1.23;;
68196;SDS011;55019;49.382;11.358;2023-12-29T08:35:51;3.13;;;1.15;;
68196;SDS011;55019;49.382;11.358;2023-12-29T08:38:17;2.10;;;1.25;;
68196;SDS011;55019;49.382;11.358;2023-12-29T08:40:43;1.60;;;1.15;;
68196;SDS011;55019;49.382;11.358;2023-12-29T08:43:09;2.50;;;1.45;;
68196;SDS011;55019;49.382;11.358;2023-12-29T08:45:35;2.35;;;1.15;;
68196;SDS011;55019;49.382;11.358;2023-12-29T08:48:01;2.88;;;1.50;;
68196;SDS011;55019;49.382;11.358;2023-12-29T08:50:28;2.40;;;1.23;;
68196;SDS011;55019;49.382;11.358;2023-12-29T08:52:54;1.88;;;1.30;;
68196;SDS011;55019;49.382;11.358;2023-12-29T08:55:20;2.72;;;1.42;;
68196;SDS011;55019;49.382;11.358;2023-12-29T08:57:46;2.88;;;1.25;;
68196;SDS011;55019;49.382;11.358;2023-12-29T09:00:12;1.80;;;1.40;;
68196;SDS011;55019;49.382;11.358;2023-12-29T09:02:38;3.42;;;1.20;;
68196;SDS011;55019;49.382;11.358;2023-12-29T09:05:04;4.03;;;1.80;;
68196;SDS011;55019;49.382;11.358;2023-12-29T09:07:30;2.13;;;1.75;;
68196;SDS011;55019;49.382;11.358;2023-12-29T09:09:56;2.08;;;1.15;;
68196;SDS011;55019;49.382;11.358;2023-12-29T09:12:21;2.17;;;1.42;;
68196;SDS011;55019;49.382;11.358;2023-12-29T09:14:47;1.92;;;1.52;;
68196;SDS011;55019;49.382;11.358;2023-12-29T09:17:13;3.13;;;1.30;;
68196;SDS011;55019;49.382;11.358;2023-12-29T09:19:39;2.30;;;1.23;;
68196;SDS011;55019;49.382;11.358;2023-12-29T09:22:05;3.47;;;1.48;;
68196;SDS011;55019;49.382;11.358;2023-12-29T09:24:30;2.25;;;1.60;;
68196;SDS011;55019;49.382;11.358;2023-12-29T09:26:56;2.70;;;1.40;;
68196;SDS011;55019;49.382;11.358;2023-12-29T09:29:22;3.45;;;1.63;;
68196;SDS011;55019;49.382;11.358;2023-12-29T09:31:48;2.25;;;1.38;;
68196;SDS011;55019;49.382;11.358;2023-12-29T09:34:14;1.88;;;1.15;;
68196;SDS011;55019;49.382;11.358;2023-12-29T09:36:40;2.28;;;1.30;;
68196;SDS011;55019;49.382;11.358;2023-12-29T09:39:05;1.83;;;1.25;;
68196;SDS011;55019;49.382;11.358;2023-12-29T09:41:31;2.38;;;1.42;;
68196;SDS011;55019;49.382;11.358;2023-12-29T09:44:04;2.20;;;1.30;;
68196;SDS011;55019;49.382;11.358;2023-12-29T09:46:35;3.00;;;1.38;;
68196;SDS011;55019;49.382;11.358;2023-12-29T09:49:02;2.35;;;1.10;;
68196;SDS011;55019;49.382;11.358;2023-12-29T09:51:30;2.03;;;1.23;;
68196;SDS011;55019;49.382;11.358;2023-12-29T09:53:57;2.13;;;1.20;;
68196;SDS011;55019;49.382;11.358;2023-12-29T09:56:24;2.35;;;1.30;;
68196;SDS011;55019;49.382;11.358;2023-12-29T09:58:50;3.05;;;1.20;;
68196;SDS011;55019;49.382;11.358;2023-12-29T10:01:18;2.10;;;1.48;;
68196;SDS011;55019;49.382;11.358;2023-12-29T10:03:47;2.95;;;1.60;;
68196;SDS011;55019;49.382;11.358;2023-12-29T10:06:16;2.40;;;1.70;;
68196;SDS011;55019;49.382;11.358;2023-12-29T10:08:46;1.65;;;1.35;;
68196;SDS011;55019;49.382;11.358;2023-12-29T10:11:15;2.75;;;1.30;;
68196;SDS011;55019;49.382;11.358;2023-12-29T10:13:44;2.00;;;1.20;;
68196;SDS011;55019;49.382;11.358;2023-12-29T10:16:20;2.22;;;1.55;;
68196;SDS011;55019;49.382;11.358;2023-12-29T10:21:40;2.33;;;1.42;;
68196;SDS011;55019;49.382;11.358;2023-12-29T10:24:21;2.70;;;1.48;;
68196;SDS011;55019;49.382;11.358;2023-12-29T10:26:48;3.13;;;2.00;;
68196;SDS011;55019;49.382;11.358;2023-12-29T10:29:15;6.82;;;3.10;;
68196;SDS011;55019;49.382;11.358;2023-12-29T10:31:41;3.40;;;2.30;;
68196;SDS011;55019;49.382;11.358;2023-12-29T10:34:20;2.88;;;2.00;;
68196;SDS011;55019;49.382;11.358;2023-12-29T10:36:53;3.40;;;1.80;;
68196;SDS011;55019;49.382;11.358;2023-12-29T10:39:20;3.80;;;1.83;;
68196;SDS011;55019;49.382;11.358;2023-12-29T10:41:46;3.88;;;2.00;;
68196;SDS011;55019;49.382;11.358;2023-12-29T10:44:12;4.47;;;1.85;;
68196;SDS011;55019;49.382;11.358;2023-12-29T10:46:39;6.10;;;3.90;;
68196;SDS011;55019;49.382;11.358;2023-12-29T10:51:35;5.22;;;3.35;;
68196;SDS011;55019;49.382;11.358;2023-12-29T10:54:02;4.90;;;3.25;;
68196;SDS011;55019;49.382;11.358;2023-12-29T10:56:29;4.45;;;2.50;;
68196;SDS011;55019;49.382;11.358;2023-12-29T10:59:02;3.38;;;2.25;;
68196;SDS011;55019;49.382;11.358;2023-12-29T11:01:33;3.28;;;2.17;;
68196;SDS011;55019;49.382;11.358;2023-12-29T11:04:01;3.20;;;2.05;;
68196;SDS011;55019;49.382;11.358;2023-12-29T11:06:29;3.70;;;2.22;;
68196;SDS011;55019;49.382;11.358;2023-12-29T11:09:05;2.53;;;1.85;;
68196;SDS011;55019;49.382;11.358;2023-12-29T11:11:31;3.03;;;2.22;;
68196;SDS011;55019;49.382;11.358;2023-12-29T11:14:01;4.28;;;2.00;;
68196;SDS011;55019;49.382;11.358;2023-12-29T11:16:28;4.63;;;2.70;;
68196;SDS011;55019;49.382;11.358;2023-12-29T11:18:57;4.07;;;2.13;;
68196;SDS011;55019;49.382;11.358;2023-12-29T11:21:26;4.13;;;1.63;;
68196;SDS011;55019;49.382;11.358;2023-12-29T11:23:55;3.15;;;1.60;;
68196;SDS011;55019;49.382;11.358;2023-12-29T11:26:24;2.65;;;1.63;;
68196;SDS011;55019;49.382;11.358;2023-12-29T11:28:51;2.72;;;1.90;;
68196;SDS011;55019;49.382;11.358;2023-12-29T11:31:19;1.90;;;1.52;;
68196;SDS011;55019;49.382;11.358;2023-12-29T11:33:49;4.10;;;1.73;;
68196;SDS011;55019;49.382;11.358;2023-12-29T11:36:20;3.08;;;1.80;;
68196;SDS011;55019;49.382;11.358;2023-12-29T11:42:02;4.75;;;1.77;;
68196;SDS011;55019;49.382;11.358;2023-12-29T11:44:08;3.10;;;1.83;;
68196;SDS011;55019;49.382;11.358;2023-12-29T11:46:38;2.53;;;1.70;;
68196;SDS011;55019;49.382;11.358;2023-12-29T11:49:06;2.60;;;1.27;;
68196;SDS011;55019;49.382;11.358;2023-12-29T11:51:42;1.98;;;1.40;;
68196;SDS011;55019;49.382;11.358;2023-12-29T11:54:09;1.90;;;1.40;;
68196;SDS011;55019;49.382;11.358;2023-12-29T11:56:39;3.35;;;1.88;;
68196;SDS011;55019;49.382;11.358;2023-12-29T11:59:16;3.58;;;1.88;;
68196;SDS011;55019;49.382;11.358;2023-12-29T12:01:47;1.70;;;1.50;;
68196;SDS011;55019;49.382;11.358;2023-12-29T12:04:34;2.20;;;1.35;;
68196;SDS011;55019;49.382;11.358;2023-12-29T12:07:07;1.83;;;1.25;;
68196;SDS011;55019;49.382;11.358;2023-12-29T12:12:55;2.13;;;1.20;;
68196;SDS011;55019;49.382;11.358;2023-12-29T12:17:52;2.00;;;1.40;;
68196;SDS011;55019;49.382;11.358;2023-12-29T12:20:18;2.28;;;1.50;;
68196;SDS011;55019;49.382;11.358;2023-12-29T12:22:47;2.42;;;1.40;;
68196;SDS011;55019;49.382;11.358;2023-12-29T12:26:05;1.88;;;1.33;;
68196;SDS011;55019;49.382;11.358;2023-12-29T12:28:34;2.42;;;1.35;;
68196;SDS011;55019;49.382;11.358;2023-12-29T12:31:06;2.05;;;1.33;;
68196;SDS011;55019;49.382;11.358;2023-12-29T12:33:37;2.17;;;1.10;;
68196;SDS011;55019;49.382;11.358;2023-12-29T12:36:06;2.08;;;1.20;;
68196;SDS011;55019;49.382;11.358;2023-12-29T12:38:35;2.60;;;1.05;;
68196;SDS011;55019;49.382;11.358;2023-12-29T12:41:20;1.20;;;1.00;;
68196;SDS011;55019;49.382;11.358;2023-12-29T12:43:54;1.20;;;1.10;;
68196;SDS011;55019;49.382;11.358;2023-12-29T12:46:38;2.30;;;1.40;;
68196;SDS011;55019;49.382;11.358;2023-12-29T12:49:18;1.60;;;1.20;;
68196;SDS011;55019;49.382;11.358;2023-12-29T12:51:45;1.77;;;1.10;;
68196;SDS011;55019;49.382;11.358;2023-12-29T12:54:12;1.67;;;1.35;;
68196;SDS011;55019;49.382;11.358;2023-12-29T12:56:43;2.75;;;0.85;;
68196;SDS011;55019;49.382;11.358;2023-12-29T12:59:12;2.40;;;1.17;;
68196;SDS011;55019;49.382;11.358;2023-12-29T13:01:39;4.70;;;1.10;;
68196;SDS011;55019;49.382;11.358;2023-12-29T13:04:06;2.58;;;1.40;;
68196;SDS011;55019;49.382;11.358;2023-12-29T13:06:34;3.58;;;1.30;;
68196;SDS011;55019;49.382;11.358;2023-12-29T13:09:06;1.70;;;1.20;;
68196;SDS011;55019;49.382;11.358;2023-12-29T13:11:38;1.63;;;1.20;;
68196;SDS011;55019;49.382;11.358;2023-12-29T13:14:06;1.63;;;1.17;;
68196;SDS011;55019;49.382;11.358;2023-12-29T13:16:33;1.42;;;0.73;;
68196;SDS011;55019;49.382;11.358;2023-12-29T13:24:21;1.15;;;0.63;;
68196;SDS011;55019;49.382;11.358;2023-12-29T13:26:50;1.25;;;0.75;;
68196;SDS011;55019;49.382;11.358;2023-12-29T13:29:18;1.08;;;0.75;;
68196;SDS011;55019;49.382;11.358;2023-12-29T13:31:47;0.77;;;0.40;;
68196;SDS011;55019;49.382;11.358;2023-12-29T13:34:23;0.82;;;0.50;;
68196;SDS011;55019;49.382;11.358;2023-12-29T13:37:04;2.05;;;0.70;;
68196;SDS011;55019;49.382;11.358;2023-12-29T13:39:50;1.65;;;0.70;;
68196;SDS011;55019;49.382;11.358;2023-12-29T13:42:20;1.00;;;0.60;;
68196;SDS011;55019;49.382;11.358;2023-12-29T13:44:50;0.75;;;0.50;;
68196;SDS011;55019;49.382;11.358;2023-12-29T13:47:17;1.27;;;0.60;;
68196;SDS011;55019;49.382;11.358;2023-12-29T13:49:47;0.60;;;0.22;;
68196;SDS011;55019;49.382;11.358;2023-12-29T13:52:14;1.02;;;0.30;;
68196;SDS011;55019;49.382;11.358;2023-12-29T13:54:47;0.20;;;0.20;;
68196;SDS011;55019;49.382;11.358;2023-12-29T13:57:14;0.52;;;0.20;;
68196;SDS011;55019;49.382;11.358;2023-12-29T13:59:40;0.40;;;0.22;;
68196;SDS011;55019;49.382;11.358;2023-12-29T14:05:35;0.13;;;0.10;;
68196;SDS011;55019;49.382;11.358;2023-12-29T14:08:00;2.05;;;0.15;;
68196;SDS011;55019;49.382;11.358;2023-12-29T14:10:34;0.30;;;0.20;;
68196;SDS011;55019;49.382;11.358;2023-12-29T14:18:42;1.15;;;0.20;;
68196;SDS011;55019;49.382;11.358;2023-12-29T14:21:21;0.45;;;0.20;;
68196;SDS011;55019;49.382;11.358;2023-12-29T14:23:58;0.57;;;0.20;;
68196;SDS011;55019;49.382;11.358;2023-12-29T14:26:35;0.40;;;0.30;;
68196;SDS011;55019;49.382;11.358;2023-12-29T14:29:13;0.28;;;0.10;;
68196;SDS011;55019;49.382;11.358;2023-12-29T14:31:39;0.22;;;0.10;;
68196;SDS011;55019;49.382;11.358;2023-12-29T14:34:06;0.43;;;0.30;;
68196;SDS011;55019;49.382;11.358;2023-12-29T14:36:34;0.60;;;0.30;;
68196;SDS011;55019;49.382;11.358;2023-12-29T14:39:01;0.40;;;0.25;;
68196;SDS011;55019;49.382;11.358;2023-12-29T14:41:28;0.82;;;0.30;;
68196;SDS011;55019;49.382;11.358;2023-12-29T14:43:54;0.30;;;0.15;;
68196;SDS011;55019;49.382;11.358;2023-12-29T14:46:22;0.32;;;0.20;;
68196;SDS011;55019;49.382;11.358;2023-12-29T14:48:51;1.83;;;0.70;;
68196;SDS011;55019;49.382;11.358;2023-12-29T14:51:23;0.80;;;0.15;;
68196;SDS011;55019;49.382;11.358;2023-12-29T14:53:50;0.38;;;0.20;;
68196;SDS011;55019;49.382;11.358;2023-12-29T14:56:16;1.00;;;0.40;;
68196;SDS011;55019;49.382;11.358;2023-12-29T14:58:43;0.52;;;0.32;;
68196;SDS011;55019;49.382;11.358;2023-12-29T15:01:09;0.45;;;0.30;;
68196;SDS011;55019;49.382;11.358;2023-12-29T15:03:36;1.25;;;0.50;;
68196;SDS011;55019;49.382;11.358;2023-12-29T15:06:03;1.65;;;0.30;;
68196;SDS011;55019;49.382;11.358;2023-12-29T15:08:30;1.65;;;0.57;;
68196;SDS011;55019;49.382;11.358;2023-12-29T15:11:06;1.40;;;0.73;;
68196;SDS011;55019;49.382;11.358;2023-12-29T15:13:33;0.45;;;0.28;;
68196;SDS011;55019;49.382;11.358;2023-12-29T15:15:59;0.43;;;0.30;;
68196;SDS011;55019;49.382;11.358;2023-12-29T15:18:27;1.17;;;0.35;;